createdAt,value
2023-01-30T00:02:10.415Z,78.08
2023-01-30T00:12:10.379Z,78.37
2023-01-30T00:22:10.455Z,78.54
2023-01-30T00:32:10.479Z,78.74
2023-01-30T00:42:28.674Z,78.93
2023-01-30T00:52:28.452Z,79.12
2023-01-30T01:02:28.528Z,79.24
2023-01-30T01:12:42.930Z,79.43
2023-01-30T01:22:43.464Z,79.52
2023-01-30T01:32:43.614Z,79.71
2023-01-30T01:42:43.596Z,79.93
2023-01-30T01:52:43.584Z,80.03
2023-01-30T02:02:44.318Z,80.18
2023-01-30T02:12:44.649Z,80.34
2023-01-30T02:22:44.723Z,80.76
2023-01-30T02:32:44.690Z,81.10
2023-01-30T02:42:44.633Z,81.33
2023-01-30T02:52:44.715Z,81.47
2023-01-30T03:02:44.753Z,81.58
2023-01-30T03:12:45.728Z,81.70
2023-01-30T03:22:47.068Z,81.74
2023-01-30T03:32:48.350Z,81.80
2023-01-30T03:42:48.921Z,81.87
2023-01-30T03:52:50.578Z,81.98
2023-01-30T04:02:51.464Z,82.07
2023-01-30T04:12:53.076Z,82.21
2023-01-30T04:22:53.657Z,82.43
2023-01-30T04:32:53.853Z,82.50
2023-01-30T04:43:10.804Z,82.70
2023-01-30T04:53:10.869Z,82.85
2023-01-30T05:03:10.756Z,83.01
2023-01-30T05:13:10.783Z,83.27
2023-01-30T05:23:10.737Z,83.51
2023-01-30T05:33:10.743Z,83.83
2023-01-30T05:43:10.847Z,83.97
2023-01-30T05:53:10.871Z,84.16
2023-01-30T06:03:10.782Z,84.37
2023-01-30T06:13:10.931Z,84.51
2023-01-30T06:23:10.872Z,84.67
2023-01-30T06:33:10.829Z,84.79
2023-01-30T06:43:10.842Z,84.98
2023-01-30T06:53:10.827Z,85.09
2023-01-30T07:03:11.125Z,85.16
2023-01-30T07:13:10.945Z,85.20
2023-01-30T07:23:10.956Z,85.22
2023-01-30T07:33:11.072Z,85.25
2023-01-30T07:43:12.497Z,85.23
2023-01-30T07:53:12.948Z,85.24
2023-01-30T08:03:12.925Z,85.06
2023-01-30T08:13:12.999Z,85.09
2023-01-30T08:23:13.024Z,84.93
2023-01-30T08:33:13.063Z,84.49
2023-01-30T08:43:13.070Z,83.49
2023-01-30T08:53:13.112Z,83.26
2023-01-30T09:03:13.038Z,83.94
2023-01-30T09:13:13.070Z,83.89
2023-01-30T09:23:13.081Z,83.07
2023-01-30T09:33:15.011Z,82.62
2023-01-30T09:43:15.147Z,81.93
2023-01-30T09:53:15.169Z,81.22
2023-01-30T10:03:15.170Z,80.41
2023-01-30T10:13:15.159Z,80.29
2023-01-30T10:23:15.166Z,80.07
2023-01-30T10:33:15.456Z,79.36
2023-01-30T10:43:15.173Z,79.19
2023-01-30T10:53:15.173Z,78.58
2023-01-30T11:03:16.135Z,77.98
2023-01-30T11:13:16.202Z,77.56
2023-01-30T11:23:16.278Z,77.06
2023-01-30T11:33:17.336Z,75.75
2023-01-30T11:43:17.305Z,75.87
2023-01-30T11:53:17.286Z,75.38
2023-01-30T12:03:17.764Z,75.09
2023-01-30T12:13:18.302Z,74.03
2023-01-30T12:23:28.593Z,73.40
2023-01-30T12:33:28.274Z,72.26
2023-01-30T12:43:28.403Z,71.40
2023-01-30T12:53:28.342Z,70.74
2023-01-30T13:03:28.311Z,70.16
2023-01-30T13:13:28.367Z,69.35
2023-01-30T13:23:28.335Z,68.29
2023-01-30T13:33:28.424Z,67.79
2023-01-30T13:43:28.395Z,67.60
2023-01-30T13:53:28.390Z,67.82
2023-01-30T14:03:30.008Z,67.46
2023-01-30T14:13:31.409Z,67.32
2023-01-30T14:23:32.406Z,67.05
2023-01-30T14:33:33.497Z,66.77
2023-01-30T14:43:33.444Z,66.56
2023-01-30T14:53:33.435Z,66.56
2023-01-30T15:03:35.340Z,66.76
2023-01-30T15:13:35.532Z,67.25
2023-01-30T15:23:35.524Z,67.73
2023-01-30T15:33:35.472Z,67.89
2023-01-30T15:43:35.767Z,68.02
2023-01-30T15:53:35.562Z,68.58
2023-01-30T16:03:37.333Z,69.12
2023-01-30T16:13:39.264Z,69.57
2023-01-30T16:23:39.535Z,69.95
2023-01-30T16:33:39.571Z,70.28
2023-01-30T16:43:41.485Z,70.57
2023-01-30T16:53:43.401Z,70.78
2023-01-30T17:03:43.662Z,71.09
2023-01-30T17:13:43.647Z,71.51
2023-01-30T17:23:43.601Z,71.68
2023-01-30T17:33:43.599Z,71.92
2023-01-30T17:43:43.642Z,72.07
2023-01-30T17:53:43.599Z,72.36
2023-01-30T18:03:44.877Z,72.62
2023-01-30T18:13:46.612Z,72.75
2023-01-30T18:23:46.678Z,73.02
2023-01-30T18:34:06.641Z,73.24
2023-01-30T18:44:06.827Z,73.43
2023-01-30T18:54:06.940Z,73.66
2023-01-30T19:04:06.692Z,73.95
2023-01-30T19:14:06.767Z,74.06
2023-01-30T19:24:06.851Z,74.14
2023-01-30T19:34:07.805Z,74.25
2023-01-30T19:44:07.758Z,74.49
2023-01-30T19:54:07.807Z,74.78
2023-01-30T20:04:07.904Z,75.03
2023-01-30T20:14:07.822Z,75.19
2023-01-30T20:24:07.888Z,75.54
2023-01-30T20:34:07.880Z,75.67
2023-01-30T20:44:07.913Z,76.05
2023-01-30T20:54:07.930Z,76.29
2023-01-30T21:04:07.962Z,76.61
2023-01-30T21:14:07.908Z,76.82
2023-01-30T21:24:07.892Z,76.92
2023-01-30T21:34:08.352Z,76.86
2023-01-30T21:44:08.927Z,77.11
2023-01-30T21:54:08.926Z,77.36
2023-01-30T22:04:08.968Z,77.49
2023-01-30T22:14:08.963Z,77.62
2023-01-30T22:24:09.078Z,77.72
2023-01-30T22:34:09.027Z,77.78
2023-01-30T22:44:08.994Z,77.80
2023-01-30T22:54:09.120Z,77.86
2023-01-30T23:04:09.112Z,77.90
2023-01-30T23:14:09.025Z,77.91
2023-01-30T23:24:09.018Z,77.97
2023-01-30T23:34:09.092Z,77.97
2023-01-30T23:44:09.050Z,78.01
2023-01-30T23:54:09.046Z,78.00
